sensor_id;sensor_type;location;lat;lon;timestamp;P1;durP1;ratioP1;P2;durP2;ratioP2
50709;SDS011;37033;49.994;21.992;2023-03-01T00:02:17;242.30;;;85.60;;
50709;SDS011;37033;49.994;21.992;2023-03-01T00:05:07;235.60;;;82.70;;
50709;SDS011;37033;49.994;21.992;2023-03-01T00:07:57;243.80;;;82.40;;
50709;SDS011;37033;49.994;21.992;2023-03-01T00:10:47;236.40;;;79.10;;
50709;SDS011;37033;49.994;21.992;2023-03-01T00:13:37;233.40;;;79.80;;
50709;SDS011;37033;49.994;21.992;2023-03-01T00:16:28;231.70;;;80.30;;
50709;SDS011;37033;49.994;21.992;2023-03-01T00:19:20;240.20;;;83.50;;
50709;SDS011;37033;49.994;21.992;2023-03-01T00:22:10;233.40;;;76.90;;
50709;SDS011;37033;49.994;21.992;2023-03-01T00:25:00;223.90;;;73.60;;
50709;SDS011;37033;49.994;21.992;2023-03-01T00:27:51;222.00;;;75.00;;
50709;SDS011;37033;49.994;21.992;2023-03-01T00:30:40;225.50;;;77.60;;
50709;SDS011;37033;49.994;21.992;2023-03-01T00:33:30;224.20;;;81.20;;
50709;SDS011;37033;49.994;21.992;2023-03-01T00:36:20;235.50;;;80.10;;
50709;SDS011;37033;49.994;21.992;2023-03-01T00:39:12;221.60;;;77.80;;
50709;SDS011;37033;49.994;21.992;2023-03-01T00:42:02;233.90;;;84.90;;
50709;SDS011;37033;49.994;21.992;2023-03-01T00:44:52;254.90;;;88.40;;
50709;SDS011;37033;49.994;21.992;2023-03-01T00:47:42;264.80;;;91.00;;
50709;SDS011;37033;49.994;21.992;2023-03-01T00:50:31;264.20;;;91.90;;
50709;SDS011;37033;49.994;21.992;2023-03-01T00:53:21;247.60;;;86.40;;
50709;SDS011;37033;49.994;21.992;2023-03-01T00:56:11;243.90;;;85.30;;
50709;SDS011;37033;49.994;21.992;2023-03-01T00:59:02;255.10;;;86.20;;
50709;SDS011;37033;49.994;21.992;2023-03-01T01:01:51;236.30;;;82.90;;
50709;SDS011;37033;49.994;21.992;2023-03-01T01:04:41;267.30;;;90.30;;
50709;SDS011;37033;49.994;21.992;2023-03-01T01:07:30;254.30;;;88.70;;
50709;SDS011;37033;49.994;21.992;2023-03-01T01:10:20;242.10;;;83.00;;
50709;SDS011;37033;49.994;21.992;2023-03-01T01:13:10;236.20;;;80.90;;
50709;SDS011;37033;49.994;21.992;2023-03-01T01:16:01;233.80;;;81.40;;
50709;SDS011;37033;49.994;21.992;2023-03-01T01:18:52;239.30;;;85.30;;
50709;SDS011;37033;49.994;21.992;2023-03-01T01:21:42;238.70;;;83.90;;
50709;SDS011;37033;49.994;21.992;2023-03-01T01:24:32;242.70;;;86.90;;
50709;SDS011;37033;49.994;21.992;2023-03-01T01:27:22;267.20;;;86.90;;
50709;SDS011;37033;49.994;21.992;2023-03-01T01:30:13;249.60;;;84.50;;
50709;SDS011;37033;49.994;21.992;2023-03-01T01:33:03;245.30;;;84.50;;
50709;SDS011;37033;49.994;21.992;2023-03-01T01:35:53;256.30;;;87.90;;
50709;SDS011;37033;49.994;21.992;2023-03-01T01:38:43;269.30;;;88.50;;
50709;SDS011;37033;49.994;21.992;2023-03-01T01:41:33;242.60;;;85.30;;
50709;SDS011;37033;49.994;21.992;2023-03-01T01:44:23;269.90;;;91.40;;
50709;SDS011;37033;49.994;21.992;2023-03-01T01:47:14;272.10;;;87.10;;
50709;SDS011;37033;49.994;21.992;2023-03-01T01:50:10;262.70;;;88.70;;
50709;SDS011;37033;49.994;21.992;2023-03-01T01:53:10;226.80;;;80.60;;
50709;SDS011;37033;49.994;21.992;2023-03-01T01:56:03;244.80;;;82.40;;
50709;SDS011;37033;49.994;21.992;2023-03-01T01:58:56;228.00;;;77.60;;
50709;SDS011;37033;49.994;21.992;2023-03-01T02:01:46;216.80;;;80.00;;
50709;SDS011;37033;49.994;21.992;2023-03-01T02:04:36;218.20;;;76.50;;
50709;SDS011;37033;49.994;21.992;2023-03-01T02:07:26;201.80;;;73.70;;
50709;SDS011;37033;49.994;21.992;2023-03-01T02:10:17;205.30;;;73.70;;
50709;SDS011;37033;49.994;21.992;2023-03-01T02:13:08;202.20;;;72.00;;
50709;SDS011;37033;49.994;21.992;2023-03-01T02:15:58;183.00;;;65.70;;
50709;SDS011;37033;49.994;21.992;2023-03-01T02:18:49;211.40;;;72.60;;
50709;SDS011;37033;49.994;21.992;2023-03-01T02:21:42;219.60;;;75.90;;
50709;SDS011;37033;49.994;21.992;2023-03-01T02:24:38;239.60;;;78.30;;
50709;SDS011;37033;49.994;21.992;2023-03-01T02:27:38;219.40;;;74.90;;
50709;SDS011;37033;49.994;21.992;2023-03-01T02:30:37;205.80;;;72.40;;
50709;SDS011;37033;49.994;21.992;2023-03-01T02:33:47;213.20;;;71.90;;
50709;SDS011;37033;49.994;21.992;2023-03-01T02:36:37;208.80;;;71.10;;
50709;SDS011;37033;49.994;21.992;2023-03-01T02:39:31;201.30;;;72.30;;
50709;SDS011;37033;49.994;21.992;2023-03-01T02:42:30;209.60;;;68.10;;
50709;SDS011;37033;49.994;21.992;2023-03-01T02:45:23;204.80;;;71.80;;
50709;SDS011;37033;49.994;21.992;2023-03-01T02:48:14;179.40;;;66.80;;
50709;SDS011;37033;49.994;21.992;2023-03-01T02:51:05;209.30;;;69.90;;
50709;SDS011;37033;49.994;21.992;2023-03-01T02:54:04;186.30;;;65.60;;
50709;SDS011;37033;49.994;21.992;2023-03-01T02:57:00;181.90;;;61.90;;
50709;SDS011;37033;49.994;21.992;2023-03-01T02:59:50;170.80;;;63.40;;
50709;SDS011;37033;49.994;21.992;2023-03-01T03:02:42;174.40;;;63.00;;
50709;SDS011;37033;49.994;21.992;2023-03-01T03:05:31;187.50;;;63.70;;
50709;SDS011;37033;49.994;21.992;2023-03-01T03:08:21;182.30;;;63.80;;
50709;SDS011;37033;49.994;21.992;2023-03-01T03:11:11;187.90;;;64.90;;
50709;SDS011;37033;49.994;21.992;2023-03-01T03:14:00;174.40;;;61.30;;
50709;SDS011;37033;49.994;21.992;2023-03-01T03:16:50;185.20;;;63.00;;
50709;SDS011;37033;49.994;21.992;2023-03-01T03:19:40;182.70;;;63.50;;
50709;SDS011;37033;49.994;21.992;2023-03-01T03:22:32;170.00;;;60.50;;
50709;SDS011;37033;49.994;21.992;2023-03-01T03:25:22;181.40;;;64.00;;
50709;SDS011;37033;49.994;21.992;2023-03-01T03:28:13;181.70;;;60.70;;
50709;SDS011;37033;49.994;21.992;2023-03-01T03:31:03;190.50;;;63.10;;
50709;SDS011;37033;49.994;21.992;2023-03-01T03:33:55;160.30;;;58.40;;
50709;SDS011;37033;49.994;21.992;2023-03-01T03:36:45;153.50;;;56.60;;
50709;SDS011;37033;49.994;21.992;2023-03-01T03:39:35;179.40;;;57.40;;
50709;SDS011;37033;49.994;21.992;2023-03-01T03:42:25;162.50;;;55.60;;
50709;SDS011;37033;49.994;21.992;2023-03-01T03:45:15;177.80;;;58.90;;
50709;SDS011;37033;49.994;21.992;2023-03-01T03:48:06;169.00;;;58.70;;
50709;SDS011;37033;49.994;21.992;2023-03-01T03:50:57;161.20;;;56.40;;
50709;SDS011;37033;49.994;21.992;2023-03-01T03:53:46;172.40;;;58.20;;
50709;SDS011;37033;49.994;21.992;2023-03-01T03:56:36;142.60;;;48.40;;
50709;SDS011;37033;49.994;21.992;2023-03-01T03:59:26;146.00;;;49.40;;
50709;SDS011;37033;49.994;21.992;2023-03-01T04:02:17;153.50;;;49.10;;
50709;SDS011;37033;49.994;21.992;2023-03-01T04:05:10;151.60;;;50.50;;
50709;SDS011;37033;49.994;21.992;2023-03-01T04:08:01;147.80;;;51.30;;
50709;SDS011;37033;49.994;21.992;2023-03-01T04:10:57;144.10;;;50.30;;
50709;SDS011;37033;49.994;21.992;2023-03-01T04:14:09;136.20;;;48.90;;
50709;SDS011;37033;49.994;21.992;2023-03-01T04:16:59;153.60;;;49.10;;
50709;SDS011;37033;49.994;21.992;2023-03-01T04:19:52;144.50;;;49.80;;
50709;SDS011;37033;49.994;21.992;2023-03-01T04:22:41;144.40;;;48.60;;
50709;SDS011;37033;49.994;21.992;2023-03-01T04:25:33;134.80;;;48.70;;
50709;SDS011;37033;49.994;21.992;2023-03-01T04:28:23;141.20;;;49.00;;
50709;SDS011;37033;49.994;21.992;2023-03-01T04:31:15;135.80;;;48.00;;
50709;SDS011;37033;49.994;21.992;2023-03-01T04:34:07;151.60;;;50.30;;
50709;SDS011;37033;49.994;21.992;2023-03-01T04:36:57;134.80;;;46.90;;
50709;SDS011;37033;49.994;21.992;2023-03-01T04:39:46;132.80;;;47.40;;
50709;SDS011;37033;49.994;21.992;2023-03-01T04:42:36;124.90;;;47.00;;
50709;SDS011;37033;49.994;21.992;2023-03-01T04:45:26;149.30;;;49.70;;
50709;SDS011;37033;49.994;21.992;2023-03-01T04:48:15;124.10;;;45.40;;
50709;SDS011;37033;49.994;21.992;2023-03-01T04:51:05;155.00;;;52.60;;
50709;SDS011;37033;49.994;21.992;2023-03-01T04:53:55;128.50;;;45.80;;
50709;SDS011;37033;49.994;21.992;2023-03-01T04:56:45;140.90;;;47.50;;
50709;SDS011;37033;49.994;21.992;2023-03-01T04:59:34;131.10;;;46.70;;
50709;SDS011;37033;49.994;21.992;2023-03-01T05:02:24;141.90;;;49.50;;
50709;SDS011;37033;49.994;21.992;2023-03-01T05:05:14;126.70;;;46.10;;
50709;SDS011;37033;49.994;21.992;2023-03-01T05:08:05;139.60;;;47.00;;
50709;SDS011;37033;49.994;21.992;2023-03-01T05:10:55;116.30;;;43.10;;
50709;SDS011;37033;49.994;21.992;2023-03-01T05:13:45;138.70;;;47.90;;
50709;SDS011;37033;49.994;21.992;2023-03-01T05:16:37;129.60;;;45.00;;
50709;SDS011;37033;49.994;21.992;2023-03-01T05:19:27;138.70;;;44.20;;
50709;SDS011;37033;49.994;21.992;2023-03-01T05:22:17;117.40;;;45.90;;
50709;SDS011;37033;49.994;21.992;2023-03-01T05:25:08;134.50;;;47.10;;
50709;SDS011;37033;49.994;21.992;2023-03-01T05:28:00;142.80;;;49.10;;
50709;SDS011;37033;49.994;21.992;2023-03-01T05:30:50;129.10;;;45.40;;
50709;SDS011;37033;49.994;21.992;2023-03-01T05:33:40;119.00;;;44.10;;
50709;SDS011;37033;49.994;21.992;2023-03-01T05:36:30;127.60;;;44.70;;
50709;SDS011;37033;49.994;21.992;2023-03-01T05:39:22;134.10;;;44.70;;
50709;SDS011;37033;49.994;21.992;2023-03-01T05:42:13;123.20;;;46.50;;
50709;SDS011;37033;49.994;21.992;2023-03-01T05:45:03;141.00;;;48.60;;
50709;SDS011;37033;49.994;21.992;2023-03-01T05:47:56;132.80;;;45.20;;
50709;SDS011;37033;49.994;21.992;2023-03-01T05:50:46;134.10;;;44.60;;
50709;SDS011;37033;49.994;21.992;2023-03-01T05:53:36;148.00;;;50.20;;
50709;SDS011;37033;49.994;21.992;2023-03-01T05:56:26;147.10;;;49.70;;
50709;SDS011;37033;49.994;21.992;2023-03-01T05:59:15;170.00;;;53.30;;
50709;SDS011;37033;49.994;21.992;2023-03-01T06:02:05;172.80;;;55.10;;
50709;SDS011;37033;49.994;21.992;2023-03-01T06:04:55;150.10;;;53.00;;
50709;SDS011;37033;49.994;21.992;2023-03-01T06:07:44;123.90;;;42.90;;
50709;SDS011;37033;49.994;21.992;2023-03-01T06:10:34;128.10;;;44.20;;
50709;SDS011;37033;49.994;21.992;2023-03-01T06:13:24;112.90;;;39.70;;
50709;SDS011;37033;49.994;21.992;2023-03-01T06:16:14;105.90;;;40.30;;
50709;SDS011;37033;49.994;21.992;2023-03-01T06:19:04;126.70;;;44.70;;
50709;SDS011;37033;49.994;21.992;2023-03-01T06:21:53;123.60;;;45.60;;
50709;SDS011;37033;49.994;21.992;2023-03-01T06:24:43;131.60;;;45.80;;
50709;SDS011;37033;49.994;21.992;2023-03-01T06:27:33;161.40;;;54.40;;
50709;SDS011;37033;49.994;21.992;2023-03-01T06:30:23;140.20;;;48.10;;
50709;SDS011;37033;49.994;21.992;2023-03-01T06:33:14;138.40;;;46.50;;
50709;SDS011;37033;49.994;21.992;2023-03-01T06:36:06;116.90;;;43.20;;
50709;SDS011;37033;49.994;21.992;2023-03-01T06:38:57;104.40;;;37.00;;
50709;SDS011;37033;49.994;21.992;2023-03-01T06:41:47;112.10;;;39.80;;
50709;SDS011;37033;49.994;21.992;2023-03-01T06:44:36;99.50;;;35.60;;
50709;SDS011;37033;49.994;21.992;2023-03-01T06:47:26;91.90;;;36.70;;
50709;SDS011;37033;49.994;21.992;2023-03-01T06:50:16;97.90;;;38.20;;
50709;SDS011;37033;49.994;21.992;2023-03-01T06:53:06;105.80;;;39.10;;
50709;SDS011;37033;49.994;21.992;2023-03-01T06:55:56;100.00;;;40.30;;
50709;SDS011;37033;49.994;21.992;2023-03-01T06:58:47;105.80;;;39.00;;
50709;SDS011;37033;49.994;21.992;2023-03-01T07:01:36;93.40;;;37.60;;
50709;SDS011;37033;49.994;21.992;2023-03-01T07:04:26;104.00;;;39.10;;
50709;SDS011;37033;49.994;21.992;2023-03-01T07:07:16;75.80;;;32.50;;
50709;SDS011;37033;49.994;21.992;2023-03-01T07:10:08;76.80;;;32.00;;
50709;SDS011;37033;49.994;21.992;2023-03-01T07:12:59;73.30;;;29.20;;
50709;SDS011;37033;49.994;21.992;2023-03-01T07:15:48;81.80;;;30.70;;
50709;SDS011;37033;49.994;21.992;2023-03-01T07:18:38;67.00;;;27.70;;
50709;SDS011;37033;49.994;21.992;2023-03-01T07:21:28;64.30;;;25.90;;
50709;SDS011;37033;49.994;21.992;2023-03-01T07:24:18;65.60;;;26.80;;
50709;SDS011;37033;49.994;21.992;2023-03-01T07:27:08;73.60;;;29.10;;
50709;SDS011;37033;49.994;21.992;2023-03-01T07:29:59;68.10;;;27.60;;
50709;SDS011;37033;49.994;21.992;2023-03-01T07:32:50;56.40;;;24.50;;
50709;SDS011;37033;49.994;21.992;2023-03-01T07:35:39;66.70;;;25.60;;
50709;SDS011;37033;49.994;21.992;2023-03-01T07:38:29;63.60;;;25.30;;
50709;SDS011;37033;49.994;21.992;2023-03-01T07:41:19;66.40;;;27.50;;
50709;SDS011;37033;49.994;21.992;2023-03-01T07:44:09;65.60;;;25.90;;
50709;SDS011;37033;49.994;21.992;2023-03-01T07:46:59;52.70;;;23.30;;
50709;SDS011;37033;49.994;21.992;2023-03-01T07:49:49;67.30;;;25.20;;
50709;SDS011;37033;49.994;21.992;2023-03-01T07:52:38;67.60;;;25.40;;
50709;SDS011;37033;49.994;21.992;2023-03-01T07:55:28;60.80;;;25.40;;
50709;SDS011;37033;49.994;21.992;2023-03-01T07:58:17;63.90;;;26.20;;
50709;SDS011;37033;49.994;21.992;2023-03-01T08:01:07;60.30;;;24.60;;
50709;SDS011;37033;49.994;21.992;2023-03-01T08:04:00;61.70;;;25.90;;
50709;SDS011;37033;49.994;21.992;2023-03-01T08:06:53;61.00;;;25.30;;
50709;SDS011;37033;49.994;21.992;2023-03-01T08:09:43;79.60;;;30.40;;
50709;SDS011;37033;49.994;21.992;2023-03-01T08:12:33;66.70;;;24.70;;
50709;SDS011;37033;49.994;21.992;2023-03-01T08:15:22;68.70;;;26.20;;
50709;SDS011;37033;49.994;21.992;2023-03-01T08:18:12;68.10;;;26.00;;
50709;SDS011;37033;49.994;21.992;2023-03-01T08:21:03;58.60;;;23.80;;
50709;SDS011;37033;49.994;21.992;2023-03-01T08:23:56;56.50;;;24.70;;
50709;SDS011;37033;49.994;21.992;2023-03-01T08:26:45;51.60;;;22.50;;
50709;SDS011;37033;49.994;21.992;2023-03-01T08:29:35;55.90;;;22.00;;
50709;SDS011;37033;49.994;21.992;2023-03-01T08:32:25;55.40;;;22.60;;
50709;SDS011;37033;49.994;21.992;2023-03-01T08:35:15;58.80;;;24.60;;
50709;SDS011;37033;49.994;21.992;2023-03-01T08:38:04;59.00;;;26.30;;
50709;SDS011;37033;49.994;21.992;2023-03-01T08:40:54;39.70;;;18.30;;
50709;SDS011;37033;49.994;21.992;2023-03-01T08:43:46;59.20;;;24.50;;
50709;SDS011;37033;49.994;21.992;2023-03-01T08:46:37;57.00;;;24.40;;
50709;SDS011;37033;49.994;21.992;2023-03-01T08:49:28;58.40;;;23.60;;
50709;SDS011;37033;49.994;21.992;2023-03-01T08:52:19;53.80;;;23.80;;
50709;SDS011;37033;49.994;21.992;2023-03-01T08:55:09;60.90;;;23.20;;
50709;SDS011;37033;49.994;21.992;2023-03-01T08:58:01;52.30;;;24.00;;
50709;SDS011;37033;49.994;21.992;2023-03-01T09:00:51;55.60;;;23.30;;
50709;SDS011;37033;49.994;21.992;2023-03-01T09:03:43;56.60;;;23.80;;
50709;SDS011;37033;49.994;21.992;2023-03-01T09:06:34;49.70;;;21.50;;
50709;SDS011;37033;49.994;21.992;2023-03-01T09:09:23;54.50;;;22.30;;
50709;SDS011;37033;49.994;21.992;2023-03-01T09:12:12;57.00;;;22.90;;
50709;SDS011;37033;49.994;21.992;2023-03-01T09:15:03;51.80;;;22.50;;
50709;SDS011;37033;49.994;21.992;2023-03-01T09:17:53;46.30;;;20.90;;
50709;SDS011;37033;49.994;21.992;2023-03-01T09:20:43;43.40;;;20.80;;
50709;SDS011;37033;49.994;21.992;2023-03-01T09:23:33;45.60;;;20.80;;
50709;SDS011;37033;49.994;21.992;2023-03-01T09:26:25;47.40;;;20.90;;
50709;SDS011;37033;49.994;21.992;2023-03-01T09:29:15;40.50;;;19.10;;
50709;SDS011;37033;49.994;21.992;2023-03-01T09:32:05;46.50;;;20.80;;
50709;SDS011;37033;49.994;21.992;2023-03-01T09:34:55;43.80;;;20.80;;
50709;SDS011;37033;49.994;21.992;2023-03-01T09:37:54;43.80;;;20.10;;
50709;SDS011;37033;49.994;21.992;2023-03-01T09:40:44;26.70;;;13.00;;
50709;SDS011;37033;49.994;21.992;2023-03-01T09:43:37;23.70;;;12.20;;
50709;SDS011;37033;49.994;21.992;2023-03-01T09:46:32;26.10;;;12.70;;
50709;SDS011;37033;49.994;21.992;2023-03-01T09:49:28;25.50;;;12.30;;
50709;SDS011;37033;49.994;21.992;2023-03-01T09:52:23;23.60;;;12.50;;
50709;SDS011;37033;49.994;21.992;2023-03-01T09:55:20;23.50;;;11.90;;
50709;SDS011;37033;49.994;21.992;2023-03-01T10:01:35;26.10;;;12.90;;
50709;SDS011;37033;49.994;21.992;2023-03-01T10:04:36;26.10;;;12.50;;
50709;SDS011;37033;49.994;21.992;2023-03-01T10:07:36;26.90;;;12.60;;
50709;SDS011;37033;49.994;21.992;2023-03-01T10:10:36;25.40;;;13.60;;
50709;SDS011;37033;49.994;21.992;2023-03-01T10:13:31;25.10;;;11.60;;
50709;SDS011;37033;49.994;21.992;2023-03-01T10:16:32;22.70;;;12.40;;
50709;SDS011;37033;49.994;21.992;2023-03-01T10:19:29;27.90;;;13.20;;
50709;SDS011;37033;49.994;21.992;2023-03-01T10:22:22;27.30;;;13.00;;
50709;SDS011;37033;49.994;21.992;2023-03-01T10:25:16;26.70;;;12.40;;
50709;SDS011;37033;49.994;21.992;2023-03-01T10:28:13;28.80;;;12.50;;
50709;SDS011;37033;49.994;21.992;2023-03-01T10:31:08;24.00;;;13.00;;
50709;SDS011;37033;49.994;21.992;2023-03-01T10:34:02;24.30;;;12.10;;
50709;SDS011;37033;49.994;21.992;2023-03-01T10:37:00;30.30;;;14.40;;
50709;SDS011;37033;49.994;21.992;2023-03-01T10:40:00;32.60;;;13.80;;
50709;SDS011;37033;49.994;21.992;2023-03-01T10:42:54;23.30;;;12.60;;
50709;SDS011;37033;49.994;21.992;2023-03-01T10:45:48;32.30;;;15.50;;
50709;SDS011;37033;49.994;21.992;2023-03-01T10:48:39;30.50;;;15.40;;
50709;SDS011;37033;49.994;21.992;2023-03-01T10:51:28;28.30;;;14.20;;
50709;SDS011;37033;49.994;21.992;2023-03-01T10:54:19;23.00;;;13.20;;
50709;SDS011;37033;49.994;21.992;2023-03-01T10:57:21;27.10;;;14.20;;
50709;SDS011;37033;49.994;21.992;2023-03-01T11:00:22;33.10;;;15.60;;
50709;SDS011;37033;49.994;21.992;2023-03-01T11:03:15;34.50;;;14.80;;
50709;SDS011;37033;49.994;21.992;2023-03-01T11:06:19;39.10;;;16.20;;
50709;SDS011;37033;49.994;21.992;2023-03-01T11:09:18;35.00;;;16.10;;
50709;SDS011;37033;49.994;21.992;2023-03-01T11:12:13;36.70;;;16.50;;
50709;SDS011;37033;49.994;21.992;2023-03-01T11:15:04;34.30;;;17.00;;
50709;SDS011;37033;49.994;21.992;2023-03-01T11:18:17;31.10;;;16.00;;
50709;SDS011;37033;49.994;21.992;2023-03-01T11:21:09;30.50;;;15.20;;
50709;SDS011;37033;49.994;21.992;2023-03-01T11:23:59;32.80;;;17.70;;
50709;SDS011;37033;49.994;21.992;2023-03-01T11:26:53;36.10;;;17.40;;
50709;SDS011;37033;49.994;21.992;2023-03-01T11:29:44;34.00;;;17.80;;
50709;SDS011;37033;49.994;21.992;2023-03-01T11:32:40;31.80;;;16.90;;
50709;SDS011;37033;49.994;21.992;2023-03-01T11:35:44;25.60;;;14.10;;
50709;SDS011;37033;49.994;21.992;2023-03-01T11:38:37;28.80;;;12.40;;
50709;SDS011;37033;49.994;21.992;2023-03-01T11:41:28;26.00;;;12.90;;
50709;SDS011;37033;49.994;21.992;2023-03-01T11:44:23;41.60;;;15.70;;
50709;SDS011;37033;49.994;21.992;2023-03-01T11:47:21;33.40;;;15.80;;
50709;SDS011;37033;49.994;21.992;2023-03-01T11:50:18;32.50;;;15.60;;
50709;SDS011;37033;49.994;21.992;2023-03-01T11:53:22;32.10;;;15.40;;
50709;SDS011;37033;49.994;21.992;2023-03-01T11:56:24;26.80;;;13.50;;
50709;SDS011;37033;49.994;21.992;2023-03-01T12:03:11;27.60;;;14.10;;
50709;SDS011;37033;49.994;21.992;2023-03-01T12:06:22;32.60;;;15.40;;
50709;SDS011;37033;49.994;21.992;2023-03-01T12:09:30;26.40;;;14.20;;
50709;SDS011;37033;49.994;21.992;2023-03-01T12:12:30;28.50;;;14.30;;
50709;SDS011;37033;49.994;21.992;2023-03-01T12:15:31;35.60;;;15.00;;
50709;SDS011;37033;49.994;21.992;2023-03-01T12:18:31;27.10;;;13.60;;
50709;SDS011;37033;49.994;21.992;2023-03-01T12:21:35;28.80;;;14.00;;
50709;SDS011;37033;49.994;21.992;2023-03-01T12:28:07;25.00;;;13.20;;
50709;SDS011;37033;49.994;21.992;2023-03-01T12:31:28;29.10;;;15.00;;
50709;SDS011;37033;49.994;21.992;2023-03-01T12:34:50;26.70;;;14.20;;
50709;SDS011;37033;49.994;21.992;2023-03-01T12:38:13;30.00;;;15.00;;
50709;SDS011;37033;49.994;21.992;2023-03-01T12:41:18;22.40;;;12.50;;
50709;SDS011;37033;49.994;21.992;2023-03-01T12:47:51;31.00;;;15.20;;
50709;SDS011;37033;49.994;21.992;2023-03-01T12:50:54;31.70;;;15.80;;
50709;SDS011;37033;49.994;21.992;2023-03-01T12:53:48;28.80;;;15.40;;
50709;SDS011;37033;49.994;21.992;2023-03-01T12:56:39;27.00;;;14.40;;
50709;SDS011;37033;49.994;21.992;2023-03-01T12:59:33;25.80;;;13.30;;
50709;SDS011;37033;49.994;21.992;2023-03-01T13:02:29;24.70;;;14.10;;
50709;SDS011;37033;49.994;21.992;2023-03-01T13:05:29;21.90;;;12.60;;
50709;SDS011;37033;49.994;21.992;2023-03-01T13:08:29;27.70;;;14.80;;
50709;SDS011;37033;49.994;21.992;2023-03-01T13:11:24;26.30;;;13.90;;
50709;SDS011;37033;49.994;21.992;2023-03-01T13:17:40;26.30;;;14.30;;
50709;SDS011;37033;49.994;21.992;2023-03-01T13:20:34;23.80;;;13.60;;
50709;SDS011;37033;49.994;21.992;2023-03-01T13:23:37;26.30;;;13.90;;
50709;SDS011;37033;49.994;21.992;2023-03-01T13:26:28;25.70;;;13.00;;
50709;SDS011;37033;49.994;21.992;2023-03-01T13:29:26;26.80;;;13.50;;
50709;SDS011;37033;49.994;21.992;2023-03-01T13:32:31;21.40;;;11.00;;
50709;SDS011;37033;49.994;21.992;2023-03-01T13:35:44;22.50;;;12.50;;
50709;SDS011;37033;49.994;21.992;2023-03-01T13:41:50;22.20;;;11.70;;
50709;SDS011;37033;49.994;21.992;2023-03-01T13:44:41;16.20;;;9.50;;
50709;SDS011;37033;49.994;21.992;2023-03-01T13:47:32;66.80;;;28.60;;
50709;SDS011;37033;49.994;21.992;2023-03-01T13:50:24;32.00;;;15.10;;
50709;SDS011;37033;49.994;21.992;2023-03-01T13:53:16;21.70;;;13.00;;
50709;SDS011;37033;49.994;21.992;2023-03-01T13:56:09;20.70;;;11.40;;
50709;SDS011;37033;49.994;21.992;2023-03-01T13:59:04;20.80;;;11.80;;
50709;SDS011;37033;49.994;21.992;2023-03-01T14:02:00;22.50;;;10.60;;
50709;SDS011;37033;49.994;21.992;2023-03-01T14:04:57;17.50;;;9.50;;
50709;SDS011;37033;49.994;21.992;2023-03-01T14:07:52;19.30;;;10.00;;
50709;SDS011;37033;49.994;21.992;2023-03-01T14:10:44;16.10;;;9.10;;
50709;SDS011;37033;49.994;21.992;2023-03-01T14:13:51;20.90;;;10.30;;
50709;SDS011;37033;49.994;21.992;2023-03-01T14:16:53;17.30;;;9.00;;
50709;SDS011;37033;49.994;21.992;2023-03-01T14:19:56;14.30;;;8.10;;
50709;SDS011;37033;49.994;21.992;2023-03-01T14:22:48;17.90;;;10.30;;
50709;SDS011;37033;49.994;21.992;2023-03-01T14:25:45;17.60;;;9.30;;
50709;SDS011;37033;49.994;21.992;2023-03-01T14:28:37;14.50;;;8.60;;
50709;SDS011;37033;49.994;21.992;2023-03-01T14:31:35;17.80;;;9.40;;
50709;SDS011;37033;49.994;21.992;2023-03-01T14:34:25;17.30;;;8.50;;
50709;SDS011;37033;49.994;21.992;2023-03-01T14:37:22;20.60;;;9.10;;
50709;SDS011;37033;49.994;21.992;2023-03-01T14:40:21;15.50;;;9.20;;
50709;SDS011;37033;49.994;21.992;2023-03-01T14:43:16;14.40;;;8.20;;
50709;SDS011;37033;49.994;21.992;2023-03-01T14:46:18;20.40;;;10.00;;
50709;SDS011;37033;49.994;21.992;2023-03-01T14:49:12;13.70;;;8.70;;
50709;SDS011;37033;49.994;21.992;2023-03-01T14:52:05;16.20;;;9.50;;
50709;SDS011;37033;49.994;21.992;2023-03-01T14:55:07;17.30;;;10.20;;
50709;SDS011;37033;49.994;21.992;2023-03-01T14:58:05;15.60;;;9.30;;
50709;SDS011;37033;49.994;21.992;2023-03-01T15:00:59;21.10;;;10.00;;
50709;SDS011;37033;49.994;21.992;2023-03-01T15:03:51;21.10;;;9.60;;
50709;SDS011;37033;49.994;21.992;2023-03-01T15:06:42;19.10;;;8.80;;
50709;SDS011;37033;49.994;21.992;2023-03-01T15:09:33;17.40;;;9.20;;
50709;SDS011;37033;49.994;21.992;2023-03-01T15:12:38;22.10;;;11.30;;
50709;SDS011;37033;49.994;21.992;2023-03-01T15:15:37;39.80;;;18.30;;
50709;SDS011;37033;49.994;21.992;2023-03-01T15:18:29;20.70;;;11.10;;
50709;SDS011;37033;49.994;21.992;2023-03-01T15:21:20;18.80;;;9.90;;
50709;SDS011;37033;49.994;21.992;2023-03-01T15:24:17;19.10;;;9.20;;
50709;SDS011;37033;49.994;21.992;2023-03-01T15:27:14;16.00;;;9.30;;
50709;SDS011;37033;49.994;21.992;2023-03-01T15:30:13;17.90;;;10.30;;
50709;SDS011;37033;49.994;21.992;2023-03-01T15:33:19;16.30;;;9.30;;
50709;SDS011;37033;49.994;21.992;2023-03-01T15:39:30;17.50;;;9.30;;
50709;SDS011;37033;49.994;21.992;2023-03-01T15:42:36;19.70;;;10.40;;
50709;SDS011;37033;49.994;21.992;2023-03-01T15:45:27;18.10;;;10.20;;
50709;SDS011;37033;49.994;21.992;2023-03-01T15:48:20;25.70;;;12.30;;
50709;SDS011;37033;49.994;21.992;2023-03-01T15:51:13;22.80;;;11.30;;
50709;SDS011;37033;49.994;21.992;2023-03-01T15:54:05;26.70;;;10.30;;
50709;SDS011;37033;49.994;21.992;2023-03-01T15:57:03;29.70;;;10.90;;
50709;SDS011;37033;49.994;21.992;2023-03-01T15:59:52;24.10;;;11.70;;
50709;SDS011;37033;49.994;21.992;2023-03-01T16:02:43;17.70;;;10.80;;
50709;SDS011;37033;49.994;21.992;2023-03-01T16:05:33;29.60;;;12.80;;
50709;SDS011;37033;49.994;21.992;2023-03-01T16:08:24;24.20;;;12.10;;
50709;SDS011;37033;49.994;21.992;2023-03-01T16:11:15;25.50;;;13.40;;
50709;SDS011;37033;49.994;21.992;2023-03-01T16:14:06;31.80;;;12.70;;
50709;SDS011;37033;49.994;21.992;2023-03-01T16:16:57;58.50;;;22.20;;
50709;SDS011;37033;49.994;21.992;2023-03-01T16:19:46;92.60;;;31.10;;
50709;SDS011;37033;49.994;21.992;2023-03-01T16:22:36;70.90;;;27.20;;
50709;SDS011;37033;49.994;21.992;2023-03-01T16:25:27;49.10;;;18.00;;
50709;SDS011;37033;49.994;21.992;2023-03-01T16:28:18;38.60;;;15.70;;
50709;SDS011;37033;49.994;21.992;2023-03-01T16:31:08;42.70;;;19.00;;
50709;SDS011;37033;49.994;21.992;2023-03-01T16:33:59;44.60;;;18.50;;
50709;SDS011;37033;49.994;21.992;2023-03-01T16:36:50;43.50;;;19.30;;
50709;SDS011;37033;49.994;21.992;2023-03-01T16:39:39;53.30;;;20.80;;
50709;SDS011;37033;49.994;21.992;2023-03-01T16:42:29;49.20;;;19.40;;
50709;SDS011;37033;49.994;21.992;2023-03-01T16:45:23;77.00;;;22.20;;
50709;SDS011;37033;49.994;21.992;2023-03-01T16:48:13;65.40;;;24.20;;
50709;SDS011;37033;49.994;21.992;2023-03-01T16:51:03;68.20;;;23.10;;
50709;SDS011;37033;49.994;21.992;2023-03-01T16:53:54;67.30;;;25.40;;
50709;SDS011;37033;49.994;21.992;2023-03-01T16:56:45;63.40;;;24.30;;